Time;durP1;ratioP1;P1;durP2;ratioP2;P2;SDS_P1;SDS_P2;PMS_P1;PMS_P2;Temp;Humidity;BMP_temperature;BMP_pressure;BME280_temperature;BME280_humidity;BME280_pressure;Samples;Min_cycle;Max_cycle;Signal;HPM_P1;HPM_P2
2021/01/31 00:00:23;;;;;;;8.20;3.72;;;1.80;87.20;;;;;;5011034;28;20022;-78
2021/01/31 00:02:49;;;;;;;7.13;3.58;;;1.90;87.30;;;;;;5010985;28;20125;-77
2021/01/31 00:05:15;;;;;;;8.82;3.38;;;1.80;87.20;;;;;;5010983;28;20030;-76
2021/01/31 00:07:41;;;;;;;6.72;3.28;;;1.80;87.30;;;;;;5010443;28;20053;-76
2021/01/31 00:10:08;;;;;;;8.90;3.78;;;1.80;87.30;;;;;;5012292;28;20033;-76
2021/01/31 00:12:34;;;;;;;9.02;3.55;;;1.70;87.40;;;;;;5011762;28;20029;-77
2021/01/31 00:15:00;;;;;;;7.03;3.75;;;1.70;87.50;;;;;;5012238;28;20026;-77
2021/01/31 00:17:26;;;;;;;8.68;4.03;;;1.70;87.50;;;;;;5011663;28;20025;-76
2021/01/31 00:19:51;;;;;;;8.75;2.85;;;1.70;87.60;;;;;;5012357;28;20049;-76
2021/01/31 00:22:17;;;;;;;9.50;3.97;;;1.70;87.60;;;;;;5012975;28;20462;-77
2021/01/31 00:24:42;;;;;;;11.73;4.10;;;1.70;87.70;;;;;;5012304;28;20445;-77
2021/01/31 00:27:08;;;;;;;7.63;3.97;;;1.70;87.70;;;;;;5020994;28;20026;-75
2021/01/31 00:29:34;;;;;;;6.45;2.90;;;1.70;87.60;;;;;;5023837;28;20022;-76
2021/01/31 00:31:59;;;;;;;8.90;3.67;;;1.70;87.70;;;;;;5019508;28;20030;-76
2021/01/31 00:34:25;;;;;;;11.90;3.75;;;1.60;87.70;;;;;;5011099;28;20491;-76
2021/01/31 00:36:51;;;;;;;7.30;2.83;;;1.60;87.70;;;;;;5012518;28;20030;-76
2021/01/31 00:39:17;;;;;;;8.10;3.63;;;1.70;87.80;;;;;;5011972;28;20101;-76
2021/01/31 00:41:44;;;;;;;8.02;3.63;;;1.60;87.80;;;;;;5009648;28;20022;-76
2021/01/31 00:44:10;;;;;;;10.13;4.20;;;1.60;87.80;;;;;;5010091;28;20053;-76
2021/01/31 00:46:38;;;;;;;8.65;3.90;;;1.50;87.80;;;;;;5011082;28;20117;-76
2021/01/31 00:49:05;;;;;;;11.13;3.28;;;1.50;87.90;;;;;;5010505;28;20058;-76
2021/01/31 00:51:30;;;;;;;12.27;3.78;;;1.50;88.00;;;;;;5009771;28;20022;-76
2021/01/31 00:53:56;;;;;;;7.97;2.92;;;1.50;88.00;;;;;;5011709;28;20056;-76
2021/01/31 00:56:22;;;;;;;12.77;4.20;;;1.50;87.90;;;;;;5011460;28;20420;-76
2021/01/31 00:58:48;;;;;;;10.23;3.40;;;1.50;88.00;;;;;;5012302;28;20133;-76
2021/01/31 01:01:18;;;;;;;6.95;3.53;;;1.50;88.10;;;;;;5015391;28;20026;-76
2021/01/31 01:03:44;;;;;;;9.52;3.42;;;1.50;88.00;;;;;;5013551;28;20112;-76
2021/01/31 01:06:09;;;;;;;8.70;3.35;;;1.50;88.10;;;;;;5014052;28;20064;-77
2021/01/31 01:08:35;;;;;;;6.93;3.13;;;1.50;88.20;;;;;;5013447;28;20374;-77
2021/01/31 01:11:01;;;;;;;7.68;3.05;;;1.50;88.20;;;;;;5015371;28;20071;-76
2021/01/31 01:13:28;;;;;;;8.20;3.35;;;1.40;88.20;;;;;;5015293;28;20079;-77
2021/01/31 01:15:54;;;;;;;10.70;4.32;;;1.50;88.20;;;;;;5013879;28;20022;-76
2021/01/31 01:18:21;;;;;;;8.52;3.30;;;1.50;88.20;;;;;;5014658;28;20477;-76
2021/01/31 01:20:47;;;;;;;8.65;3.88;;;1.50;88.20;;;;;;5013107;28;20099;-76
2021/01/31 01:23:12;;;;;;;7.80;3.40;;;1.50;88.20;;;;;;5013630;28;20374;-76
2021/01/31 01:25:38;;;;;;;11.07;3.55;;;1.40;88.30;;;;;;5014454;28;20022;-76
2021/01/31 01:28:04;;;;;;;10.18;3.83;;;1.40;88.30;;;;;;5013766;28;20564;-76
2021/01/31 01:30:31;;;;;;;9.00;3.90;;;1.40;88.30;;;;;;5014148;28;20425;-78
2021/01/31 01:32:58;;;;;;;7.88;3.15;;;1.40;88.30;;;;;;5013385;28;20033;-76
2021/01/31 01:35:25;;;;;;;10.07;3.28;;;1.40;88.20;;;;;;5013442;28;20022;-75
2021/01/31 01:37:52;;;;;;;6.20;2.72;;;1.40;88.30;;;;;;5012766;28;20034;-77
2021/01/31 01:40:22;;;;;;;8.93;2.80;;;1.30;88.30;;;;;;5013401;28;20042;-76
2021/01/31 01:42:49;;;;;;;7.50;3.17;;;1.30;88.40;;;;;;5012650;28;20080;-76
2021/01/31 01:45:15;;;;;;;9.80;4.00;;;1.20;88.50;;;;;;5012711;28;20050;-75
2021/01/31 01:47:42;;;;;;;7.35;2.88;;;1.30;88.60;;;;;;5012601;28;20312;-77
2021/01/31 01:50:28;;;;;;;9.43;3.70;;;1.20;88.50;;;;;;5012828;28;20033;-76
2021/01/31 01:52:57;;;;;;;9.25;3.38;;;1.30;88.30;;;;;;5012518;28;20346;-77
2021/01/31 01:55:25;;;;;;;9.85;4.22;;;1.30;88.30;;;;;;5013122;28;20117;-77
2021/01/31 01:58:20;;;;;;;12.32;3.75;;;1.20;88.20;;;;;;5013845;28;20030;-77
2021/01/31 02:00:48;;;;;;;10.98;3.80;;;1.20;88.30;;;;;;5012869;28;20069;-77
2021/01/31 02:03:23;;;;;;;6.50;3.60;;;1.20;88.40;;;;;;5014215;28;20026;-77
2021/01/31 02:05:56;;;;;;;7.70;3.78;;;1.20;88.40;;;;;;5012528;28;20042;-76
2021/01/31 02:08:21;;;;;;;7.80;3.30;;;1.20;88.30;;;;;;5013942;28;20363;-76
2021/01/31 02:10:47;;;;;;;4.63;2.30;;;1.10;88.30;;;;;;5012679;28;20092;-77
2021/01/31 02:13:14;;;;;;;10.27;4.30;;;1.10;88.40;;;;;;5012763;28;20029;-76
2021/01/31 02:15:40;;;;;;;7.38;3.30;;;1.10;88.40;;;;;;5011713;28;20030;-77
2021/01/31 02:18:14;;;;;;;6.45;2.88;;;1.20;88.40;;;;;;5014227;28;20026;-76
2021/01/31 02:21:03;;;;;;;7.50;3.05;;;1.20;88.40;;;;;;5013573;28;20026;-77
2021/01/31 02:24:10;;;;;;;8.07;3.05;;;1.20;88.30;;;;;;5014051;28;20481;-77
2021/01/31 02:26:58;;;;;;;9.20;3.95;;;1.20;88.20;;;;;;5011996;28;20160;-77
2021/01/31 02:29:29;;;;;;;10.07;3.80;;;1.20;88.20;;;;;;5013738;28;20029;-76
2021/01/31 02:32:28;;;;;;;8.30;3.42;;;1.20;88.00;;;;;;5013408;28;20033;-76
2021/01/31 02:35:08;;;;;;;9.90;3.70;;;1.20;88.10;;;;;;5011531;28;20026;-76
2021/01/31 02:37:43;;;;;;;10.18;4.13;;;1.20;88.20;;;;;;5012442;28;20484;-76
2021/01/31 02:40:23;;;;;;;9.13;3.95;;;1.10;88.20;;;;;;5012168;28;20105;-76
2021/01/31 02:43:01;;;;;;;9.53;3.70;;;1.10;88.20;;;;;;5012886;28;20041;-76
2021/01/31 02:45:33;;;;;;;9.30;3.70;;;1.20;88.20;;;;;;5011712;28;20327;-77
2021/01/31 02:48:13;;;;;;;10.05;3.47;;;1.20;88.20;;;;;;5013187;28;20021;-76
2021/01/31 02:50:53;;;;;;;11.88;4.22;;;1.20;88.20;;;;;;5011151;28;20025;-77
2021/01/31 02:53:31;;;;;;;8.65;3.92;;;1.10;88.20;;;;;;5012084;28;20018;-76
2021/01/31 02:56:02;;;;;;;6.43;3.28;;;1.10;88.30;;;;;;5011347;28;20390;-76
2021/01/31 02:58:39;;;;;;;9.32;3.55;;;1.10;88.90;;;;;;5011997;28;20018;-76
2021/01/31 03:01:19;;;;;;;12.85;3.35;;;1.10;88.30;;;;;;5013129;28;20034;-77
2021/01/31 03:04:09;;;;;;;6.60;2.67;;;1.10;88.20;;;;;;5011241;28;20029;-77
2021/01/31 03:06:42;;;;;;;10.85;3.85;;;1.10;88.20;;;;;;5012301;28;20394;-76
2021/01/31 03:09:21;;;;;;;9.18;4.15;;;1.10;88.20;;;;;;5011834;28;20014;-76
2021/01/31 03:11:55;;;;;;;8.90;3.15;;;1.10;88.20;;;;;;5011062;28;20021;-77
2021/01/31 03:14:38;;;;;;;9.25;3.58;;;1.10;88.20;;;;;;5011772;28;20030;-77
2021/01/31 03:17:16;;;;;;;6.85;2.92;;;1.10;88.20;;;;;;5011718;28;20026;-76
2021/01/31 03:20:10;;;;;;;10.15;3.90;;;1.10;88.30;;;;;;5012298;28;20493;-77
2021/01/31 03:22:46;;;;;;;11.57;4.10;;;1.10;88.30;;;;;;5009350;28;20046;-76
2021/01/31 03:25:18;;;;;;;8.43;3.72;;;1.10;88.40;;;;;;5011516;28;20018;-76
2021/01/31 03:27:44;;;;;;;7.78;3.63;;;1.10;88.40;;;;;;5010847;28;20549;-76
2021/01/31 03:30:13;;;;;;;9.88;3.72;;;1.10;88.40;;;;;;5012690;28;20054;-76
2021/01/31 03:32:55;;;;;;;7.20;3.78;;;1.10;88.30;;;;;;5010865;28;20386;-77
2021/01/31 03:35:39;;;;;;;;;;;1.10;88.30;;;;;;5011834;28;20026;-75
2021/01/31 03:38:15;;;;;;;8.70;3.40;;;1.00;88.20;;;;;;5012433;28;19909;-77
2021/01/31 03:40:43;;;;;;;8.32;3.22;;;1.00;88.30;;;;;;5010590;28;20104;-79
2021/01/31 03:43:09;;;;;;;9.35;3.17;;;1.00;88.30;;;;;;5011079;28;20034;-78
2021/01/31 03:45:51;;;;;;;9.38;3.38;;;1.00;88.00;;;;;;5011083;28;20569;-76
2021/01/31 03:48:23;;;;;;;9.88;4.82;;;0.90;88.30;;;;;;5011183;28;20030;-76
2021/01/31 03:50:49;;;;;;;8.48;3.78;;;0.90;88.40;;;;;;5011803;28;20057;-75
2021/01/31 03:53:15;;;;;;;7.50;4.63;;;0.90;88.40;;;;;;5012268;28;20066;-76
2021/01/31 03:55:43;;;;;;;9.90;3.70;;;0.90;88.40;;;;;;5010703;28;20076;-80
2021/01/31 03:58:12;;;;;;;10.30;3.47;;;0.90;88.40;;;;;;5012249;28;20022;-76
2021/01/31 04:00:50;;;;;;;6.85;3.00;;;0.90;88.40;;;;;;5010882;28;20107;-76
2021/01/31 04:03:19;;;;;;;9.50;3.22;;;1.00;88.40;;;;;;5012276;28;20084;-76
2021/01/31 04:05:59;;;;;;;9.90;3.72;;;0.90;88.30;;;;;;5011985;28;20038;-76
2021/01/31 04:08:29;;;;;;;7.85;3.15;;;0.90;88.40;;;;;;5011048;28;20037;-76
2021/01/31 04:10:54;;;;;;;9.60;3.75;;;0.90;88.30;;;;;;5011857;28;20523;-76
2021/01/31 04:13:22;;;;;;;6.72;3.67;;;0.90;88.30;;;;;;5011075;28;20050;-76
2021/01/31 04:15:53;;;;;;;8.52;3.35;;;0.90;88.20;;;;;;5010073;28;20366;-76
2021/01/31 04:18:19;;;;;;;;;;;0.80;88.20;;;;;;5012198;28;20390;-76
2021/01/31 04:20:45;;;;;;;9.77;3.97;;;0.70;88.30;;;;;;5010032;28;20307;-77
2021/01/31 04:23:11;;;;;;;11.52;4.03;;;0.80;88.30;;;;;;5010711;28;20378;-76
2021/01/31 04:25:37;;;;;;;12.90;4.53;;;0.70;88.20;;;;;;5012087;28;20084;-76
2021/01/31 04:28:10;;;;;;;8.77;3.80;;;0.70;88.20;;;;;;5010183;28;20881;-76
2021/01/31 04:30:38;;;;;;;6.40;3.22;;;0.80;88.40;;;;;;5012074;28;20153;-76
2021/01/31 04:33:04;;;;;;;9.23;4.55;;;0.80;88.40;;;;;;5010001;28;20403;-76
2021/01/31 04:35:30;;;;;;;10.85;4.03;;;0.80;88.40;;;;;;5014504;28;20033;-76
2021/01/31 04:37:56;;;;;;;6.53;3.63;;;0.80;88.30;;;;;;5015279;28;20028;-75
2021/01/31 04:40:22;;;;;;;8.98;3.45;;;0.80;88.20;;;;;;5014307;28;20378;-76
2021/01/31 04:42:47;;;;;;;10.55;2.97;;;0.80;88.20;;;;;;5014694;28;20034;-77
2021/01/31 04:45:14;;;;;;;9.18;3.25;;;0.80;88.30;;;;;;5015880;28;20478;-76
2021/01/31 04:47:58;;;;;;;10.77;4.35;;;0.80;88.20;;;;;;4997947;28;20054;-75
2021/01/31 04:50:50;;;;;;;11.98;4.18;;;0.80;88.20;;;;;;4998076;28;20022;-76
2021/01/31 04:53:28;;;;;;;7.60;3.17;;;0.80;88.00;;;;;;4961233;28;20052;-76
2021/01/31 04:56:28;;;;;;;8.63;3.53;;;0.80;88.00;;;;;;4997355;28;20022;-77
2021/01/31 04:59:03;;;;;;;12.57;3.78;;;0.90;88.00;;;;;;4997721;28;20041;-76
2021/01/31 05:01:31;;;;;;;10.05;3.38;;;0.80;88.00;;;;;;5015980;28;20029;-76
2021/01/31 05:03:59;;;;;;;7.57;3.42;;;0.80;88.00;;;;;;5000657;28;20105;-76
2021/01/31 05:06:29;;;;;;;8.05;3.30;;;0.80;88.00;;;;;;5023636;28;20093;-76
2021/01/31 05:08:55;;;;;;;5.60;3.30;;;0.80;88.00;;;;;;5020674;28;20026;-76
2021/01/31 05:11:28;;;;;;;7.78;2.60;;;0.80;88.10;;;;;;5008496;28;20098;-77
2021/01/31 05:14:18;;;;;;;8.95;3.20;;;0.80;88.10;;;;;;5031321;28;20026;-77
2021/01/31 05:16:44;;;;;;;9.60;3.78;;;0.80;88.10;;;;;;5019621;28;20492;-76
2021/01/31 05:19:14;;;;;;;9.55;3.45;;;0.80;88.10;;;;;;5015311;28;20104;-76
2021/01/31 05:21:41;;;;;;;10.10;4.03;;;0.80;88.00;;;;;;4997785;28;20076;-76
2021/01/31 05:24:18;;;;;;;9.60;3.42;;;0.80;88.10;;;;;;4996986;28;20026;-76
2021/01/31 05:26:50;;;;;;;10.20;4.03;;;0.80;88.20;;;;;;5015666;28;20488;-76
2021/01/31 05:29:20;;;;;;;11.02;3.45;;;0.80;88.20;;;;;;5015310;28;20482;-76
2021/01/31 05:31:56;;;;;;;9.93;3.63;;;0.80;88.10;;;;;;4997285;28;20033;-76
2021/01/31 05:34:40;;;;;;;8.52;3.90;;;0.80;88.10;;;;;;5015040;28;20029;-76
2021/01/31 05:37:09;;;;;;;8.55;3.63;;;0.80;88.10;;;;;;5014314;28;20018;-76
2021/01/31 05:39:41;;;;;;;8.20;3.78;;;0.70;88.10;;;;;;4997006;28;20121;-77
2021/01/31 05:42:17;;;;;;;12.13;4.30;;;0.80;88.20;;;;;;4996380;28;20021;-76
2021/01/31 05:44:44;;;;;;;8.27;3.88;;;0.70;88.10;;;;;;5003392;28;20054;-76
2021/01/31 05:47:22;;;;;;;9.80;3.92;;;0.70;88.00;;;;;;5011934;28;20057;-75
2021/01/31 05:49:50;;;;;;;7.05;2.85;;;0.70;88.00;;;;;;5014592;28;20466;-76
2021/01/31 05:52:18;;;;;;;8.73;4.15;;;0.70;88.00;;;;;;5014405;28;20038;-75
2021/01/31 05:54:46;;;;;;;10.23;4.18;;;0.70;88.00;;;;;;5014566;28;20029;-78
2021/01/31 05:57:35;;;;;;;10.38;4.20;;;0.70;88.00;;;;;;5013499;28;20415;-78
2021/01/31 06:00:18;;;;;;;12.57;4.22;;;0.70;87.90;;;;;;5013855;28;20026;-78
2021/01/31 06:03:04;;;;;;;9.82;3.22;;;0.70;87.90;;;;;;5013946;28;20099;-78
2021/01/31 06:05:31;;;;;;;11.00;4.25;;;0.60;88.40;;;;;;5014492;28;20057;-76
2021/01/31 06:08:27;;;;;;;9.68;3.50;;;0.60;87.80;;;;;;5012257;28;20060;-77
2021/01/31 06:11:17;;;;;;;9.55;3.83;;;0.60;87.80;;;;;;5003489;28;20088;-77
2021/01/31 06:13:43;;;;;;;9.57;3.22;;;0.60;87.70;;;;;;5012375;28;20030;-76
2021/01/31 06:16:18;;;;;;;10.98;4.03;;;0.60;87.80;;;;;;5012130;28;20034;-77
2021/01/31 06:18:51;;;;;;;12.77;5.43;;;0.60;87.90;;;;;;5013921;28;20114;-77
2021/01/31 06:21:33;;;;;;;10.48;4.43;;;0.60;87.90;;;;;;5012859;28;20025;-77
2021/01/31 06:23:59;;;;;;;9.27;3.67;;;0.50;87.80;;;;;;5012877;28;20052;-77
2021/01/31 06:26:30;;;;;;;14.35;4.53;;;0.50;87.80;;;;;;5012728;28;20462;-77
2021/01/31 06:29:02;;;;;;;;;;;0.50;87.80;;;;;;5012317;28;20057;-78
2021/01/31 06:31:50;;;;;;;9.57;4.32;;;0.40;87.90;;;;;;5024298;28;19905;-77
2021/01/31 06:34:16;;;;;;;8.30;3.53;;;0.50;87.90;;;;;;5031483;28;20076;-77
2021/01/31 06:37:12;;;;;;;7.90;2.83;;;0.50;88.00;;;;;;5033715;28;20032;-77
2021/01/31 06:39:58;;;;;;;10.32;3.42;;;0.50;88.00;;;;;;5033074;28;20075;-77
2021/01/31 06:42:48;;;;;;;8.73;4.32;;;0.50;88.00;;;;;;5033180;28;20048;-77
2021/01/31 06:45:23;;;;;;;9.45;3.70;;;0.50;88.00;;;;;;5030684;28;20156;-77
2021/01/31 06:48:10;;;;;;;10.38;3.60;;;0.50;88.00;;;;;;5031872;28;20057;-78
2021/01/31 06:50:42;;;;;;;7.15;2.78;;;0.50;88.00;;;;;;5033288;28;20021;-77
2021/01/31 06:53:41;;;;;;;6.82;3.53;;;0.50;88.10;;;;;;5031169;28;20029;-77
2021/01/31 06:56:39;;;;;;;9.88;3.17;;;0.50;88.00;;;;;;5030975;28;20034;-77
2021/01/31 06:59:13;;;;;;;10.60;4.10;;;0.50;88.00;;;;;;5032260;28;20033;-77
2021/01/31 07:01:50;;;;;;;10.27;4.05;;;0.40;88.00;;;;;;5033227;28;20021;-77
2021/01/31 07:04:45;;;;;;;9.93;3.20;;;0.40;88.10;;;;;;5030958;28;20381;-77
2021/01/31 07:07:36;;;;;;;9.15;3.22;;;0.40;88.20;;;;;;5032219;28;20022;-76
2021/01/31 07:10:10;;;;;;;8.88;3.25;;;0.40;88.10;;;;;;5030946;28;20029;-79
2021/01/31 07:12:48;;;;;;;7.07;3.35;;;0.40;88.10;;;;;;5032778;28;20094;-79
2021/01/31 07:15:17;;;;;;;9.38;4.38;;;0.40;88.20;;;;;;5033365;28;20021;-80
2021/01/31 07:17:49;;;;;;;9.85;3.47;;;0.40;88.30;;;;;;5033307;28;20454;-80
2021/01/31 07:20:28;;;;;;;8.00;3.50;;;0.50;88.40;;;;;;5031132;28;20029;-80
2021/01/31 07:23:16;;;;;;;7.78;3.13;;;0.50;88.30;;;;;;5031590;28;20033;-80
2021/01/31 07:26:14;;;;;;;11.15;3.88;;;0.50;88.20;;;;;;5032500;28;20049;-81
2021/01/31 07:28:43;;;;;;;10.25;3.70;;;0.50;88.30;;;;;;5032950;28;20079;-81
2021/01/31 07:31:17;;;;;;;9.02;3.85;;;0.50;88.30;;;;;;5031869;28;20095;-81
2021/01/31 07:34:02;;;;;;;13.07;3.90;;;0.50;88.20;;;;;;5031728;28;20026;-81
2021/01/31 07:37:12;;;;;;;7.95;3.47;;;0.50;88.20;;;;;;5031732;28;20017;-81
2021/01/31 07:39:40;;;;;;;10.75;3.83;;;0.50;88.20;;;;;;5034563;28;20373;-81
2021/01/31 07:42:08;;;;;;;10.55;3.90;;;0.50;88.20;;;;;;5032654;28;20478;-82
2021/01/31 07:44:37;;;;;;;9.00;3.70;;;0.50;88.10;;;;;;5033379;28;20081;-82
2021/01/31 07:47:04;;;;;;;9.48;4.18;;;0.50;88.00;;;;;;5015813;28;20025;-82
2021/01/31 07:49:54;;;;;;;10.38;3.42;;;0.60;88.00;;;;;;5035446;28;20028;-83
2021/01/31 07:52:22;;;;;;;13.45;4.45;;;0.60;87.90;;;;;;5031055;28;20032;-82
2021/01/31 07:54:47;;;;;;;9.77;4.07;;;0.60;87.90;;;;;;5041853;28;20541;-82
2021/01/31 07:57:29;;;;;;;8.40;4.07;;;0.60;87.90;;;;;;5036034;28;20049;-81
2021/01/31 07:59:55;;;;;;;9.75;3.53;;;0.60;87.80;;;;;;5043362;28;20021;-82
2021/01/31 08:02:38;;;;;;;9.93;3.55;;;0.60;87.70;;;;;;5032996;28;20005;-81
2021/01/31 08:05:05;;;;;;;11.18;4.90;;;0.60;87.70;;;;;;5038274;28;20093;-81
2021/01/31 08:08:06;;;;;;;10.73;4.50;;;0.70;87.70;;;;;;5034344;28;20148;-83
2021/01/31 08:10:50;;;;;;;8.82;3.80;;;0.70;87.70;;;;;;5033687;28;20025;-84
2021/01/31 08:13:38;;;;;;;6.80;2.75;;;0.70;87.70;;;;;;5032423;28;20454;-82
2021/01/31 08:16:41;;;;;;;12.93;4.20;;;0.70;87.60;;;;;;5032221;28;20024;-82
2021/01/31 08:19:09;;;;;;;9.75;3.65;;;0.70;87.60;;;;;;5032367;28;20103;-82
2021/01/31 08:21:50;;;;;;;9.40;3.75;;;0.70;87.70;;;;;;5014818;28;20590;-81
2021/01/31 08:24:53;;;;;;;8.90;3.33;;;0.80;87.70;;;;;;5031967;28;20492;-82
2021/01/31 08:27:40;;;;;;;11.07;4.10;;;0.80;87.60;;;;;;5032572;28;20077;-82
2021/01/31 08:30:18;;;;;;;10.05;3.88;;;0.80;87.50;;;;;;5033134;28;20022;-81
2021/01/31 08:33:06;;;;;;;8.32;3.10;;;0.80;87.50;;;;;;5034004;28;20470;-82
2021/01/31 08:35:41;;;;;;;9.10;4.45;;;0.90;87.50;;;;;;5009793;28;20054;-82
2021/01/31 08:38:27;;;;;;;12.23;3.10;;;0.90;87.50;;;;;;5014561;28;20028;-81
2021/01/31 08:41:05;;;;;;;9.93;3.78;;;0.90;87.40;;;;;;5032259;28;20048;-81
2021/01/31 08:43:47;;;;;;;9.40;3.88;;;0.90;87.30;;;;;;5031956;28;20033;-83
2021/01/31 08:46:34;;;;;;;9.52;3.13;;;1.00;87.20;;;;;;5013940;28;20140;-82
2021/01/31 08:49:13;;;;;;;9.25;4.18;;;1.00;87.30;;;;;;5033082;28;20018;-81
2021/01/31 08:51:43;;;;;;;9.10;3.70;;;1.00;87.40;;;;;;5035404;28;20063;-81
2021/01/31 08:54:10;;;;;;;8.10;3.03;;;1.00;87.40;;;;;;5040563;28;20109;-84
2021/01/31 08:56:40;;;;;;;7.15;3.63;;;1.00;87.30;;;;;;5034197;28;20036;-82
2021/01/31 08:59:14;;;;;;;4.97;2.60;;;1.10;87.20;;;;;;5017597;28;20029;-80
2021/01/31 09:01:41;;;;;;;9.73;4.03;;;1.10;87.00;;;;;;5018363;28;20112;-82
2021/01/31 09:04:16;;;;;;;10.85;3.67;;;1.20;87.00;;;;;;5031583;28;20041;-81
2021/01/31 09:06:45;;;;;;;8.50;3.65;;;1.20;86.90;;;;;;5014080;28;20025;-82
2021/01/31 09:09:27;;;;;;;9.63;3.83;;;1.30;86.80;;;;;;5032444;28;20026;-81
2021/01/31 09:11:56;;;;;;;10.63;3.92;;;1.30;86.60;;;;;;5013928;28;20026;-81
2021/01/31 09:14:27;;;;;;;7.40;3.33;;;1.30;86.50;;;;;;5013401;28;20156;-81
2021/01/31 09:17:19;;;;;;;8.57;3.30;;;1.40;86.40;;;;;;5031642;28;20020;-82
2021/01/31 09:19:45;;;;;;;11.65;3.80;;;1.50;86.30;;;;;;5033009;28;20080;-82
2021/01/31 09:22:22;;;;;;;9.73;3.78;;;1.50;86.20;;;;;;5017360;28;20037;-83
2021/01/31 09:24:59;;;;;;;11.25;4.78;;;1.50;86.20;;;;;;5017209;28;20030;-81
2021/01/31 09:27:27;;;;;;;9.45;3.88;;;1.40;86.30;;;;;;5016921;28;20021;-81
2021/01/31 09:30:04;;;;;;;10.88;3.95;;;1.40;86.40;;;;;;5035359;28;20025;-82
2021/01/31 09:32:43;;;;;;;7.80;3.00;;;1.50;86.40;;;;;;5034522;28;20476;-82
2021/01/31 09:35:14;;;;;;;12.00;3.90;;;1.50;86.20;;;;;;5016759;28;20087;-82
2021/01/31 09:37:40;;;;;;;8.88;3.75;;;1.40;86.20;;;;;;5034795;28;20100;-82
2021/01/31 09:40:10;;;;;;;12.07;4.30;;;1.40;86.00;;;;;;5017063;28;20111;-81
2021/01/31 09:42:40;;;;;;;9.07;3.60;;;1.40;86.00;;;;;;5017312;28;20057;-82
2021/01/31 09:45:39;;;;;;;10.30;3.75;;;1.40;85.90;;;;;;5025476;28;20057;-82
2021/01/31 09:48:08;;;;;;;8.70;3.65;;;1.50;85.80;;;;;;5035209;28;20026;-83
2021/01/31 09:50:35;;;;;;;7.05;3.30;;;1.40;85.90;;;;;;5036817;28;20044;-82
2021/01/31 09:53:01;;;;;;;8.70;3.35;;;1.40;85.90;;;;;;5038082;28;20032;-81
2021/01/31 09:55:42;;;;;;;15.60;4.85;;;1.40;85.90;;;;;;5036659;28;20033;-81
2021/01/31 09:58:26;;;;;;;11.52;3.88;;;1.50;85.80;;;;;;5051212;28;20022;-81
2021/01/31 10:00:53;;;;;;;8.93;3.45;;;1.50;85.60;;;;;;5052510;28;20089;-82
2021/01/31 10:03:26;;;;;;;9.50;4.10;;;1.40;85.80;;;;;;5043407;28;20030;-82
2021/01/31 10:06:08;;;;;;;8.40;3.33;;;1.50;85.80;;;;;;5043654;28;20463;-82
2021/01/31 10:08:36;;;;;;;16.10;4.75;;;1.50;85.80;;;;;;5038275;28;20029;-81
2021/01/31 10:11:24;;;;;;;12.00;3.70;;;1.50;85.60;;;;;;5033890;28;20017;-81
2021/01/31 10:13:49;;;;;;;9.45;4.07;;;1.60;85.60;;;;;;5033545;28;20109;-81
2021/01/31 10:16:28;;;;;;;10.90;4.15;;;1.60;85.60;;;;;;5033594;28;20044;-81
2021/01/31 10:18:53;;;;;;;12.98;4.45;;;1.60;85.40;;;;;;5032682;28;20119;-81
2021/01/31 10:21:31;;;;;;;7.57;3.58;;;1.70;85.50;;;;;;5033929;28;20029;-81
2021/01/31 10:24:21;;;;;;;11.80;4.45;;;1.70;85.40;;;;;;5034653;28;20033;-82
2021/01/31 10:26:47;;;;;;;9.88;4.32;;;1.80;85.40;;;;;;5034477;28;20072;-80
2021/01/31 10:29:31;;;;;;;10.68;4.15;;;1.70;85.50;;;;;;5033729;28;20040;-80
2021/01/31 10:32:21;;;;;;;11.43;3.85;;;1.70;85.60;;;;;;5032158;28;20025;-80
2021/01/31 10:34:47;;;;;;;8.80;3.67;;;1.70;85.50;;;;;;5032820;28;20036;-81
2021/01/31 10:37:20;;;;;;;14.43;4.22;;;1.70;85.50;;;;;;5033396;28;20018;-81
2021/01/31 10:39:46;;;;;;;13.00;4.28;;;1.70;85.50;;;;;;5032752;28;20025;-80
2021/01/31 10:42:13;;;;;;;10.07;4.20;;;1.70;85.50;;;;;;5032064;28;20044;-80
2021/01/31 10:44:40;;;;;;;11.40;3.88;;;1.70;85.50;;;;;;5033672;28;20501;-80
2021/01/31 10:47:05;;;;;;;10.88;4.20;;;1.80;85.50;;;;;;5033643;28;20048;-81
2021/01/31 10:49:31;;;;;;;11.13;4.72;;;1.80;85.40;;;;;;5033347;28;20379;-81
2021/01/31 10:51:57;;;;;;;9.40;3.97;;;1.80;85.40;;;;;;5016082;28;20545;-81
2021/01/31 10:54:23;;;;;;;7.90;3.70;;;1.90;85.30;;;;;;5015240;28;20132;-80
2021/01/31 10:56:50;;;;;;;11.27;4.03;;;1.90;85.20;;;;;;5015721;28;20422;-80
2021/01/31 10:59:15;;;;;;;11.95;3.65;;;1.90;85.30;;;;;;5015074;28;20017;-80
2021/01/31 11:01:46;;;;;;;8.93;3.75;;;2.00;85.30;;;;;;5015514;28;20032;-80
2021/01/31 11:04:13;;;;;;;12.20;4.67;;;2.10;85.10;;;;;;5033005;28;20434;-79
2021/01/31 11:06:39;;;;;;;11.88;4.43;;;2.10;84.80;;;;;;5033266;28;20037;-80
2021/01/31 11:09:05;;;;;;;11.40;4.40;;;2.20;84.60;;;;;;5015618;28;20023;-79
2021/01/31 11:11:31;;;;;;;7.57;4.40;;;2.30;84.50;;;;;;5033038;28;20022;-79
2021/01/31 11:13:57;;;;;;;11.52;4.47;;;2.40;84.30;;;;;;5033000;28;20480;-78
2021/01/31 11:16:22;;;;;;;6.07;3.22;;;2.50;84.10;;;;;;5014514;28;20021;-79
2021/01/31 11:18:48;;;;;;;10.93;3.53;;;2.50;84.10;;;;;;5015130;28;20049;-78
2021/01/31 11:21:27;;;;;;;7.93;3.80;;;2.50;84.10;;;;;;5032601;28;20101;-78
2021/01/31 11:23:54;;;;;;;9.60;3.40;;;2.60;84.20;;;;;;5032426;28;20134;-79
2021/01/31 11:26:25;;;;;;;11.27;4.05;;;2.70;84.20;;;;;;5014138;28;20083;-77
2021/01/31 11:28:52;;;;;;;6.97;3.73;;;2.80;84.10;;;;;;5032407;28;20026;-76
2021/01/31 11:31:19;;;;;;;12.90;4.40;;;2.90;83.80;;;;;;5013999;28;20372;-77
2021/01/31 11:33:44;;;;;;;9.90;4.18;;;3.10;83.70;;;;;;5032273;28;20040;-77
2021/01/31 11:36:10;;;;;;;10.32;4.00;;;3.20;83.50;;;;;;5032234;28;20462;-76
2021/01/31 11:38:36;;;;;;;11.52;3.88;;;3.40;83.40;;;;;;5013862;28;20394;-76
2021/01/31 11:41:02;;;;;;;11.43;4.93;;;3.50;83.30;;;;;;5014691;28;20047;-76
2021/01/31 11:43:29;;;;;;;8.98;4.13;;;3.60;83.20;;;;;;5012705;28;20021;-76
2021/01/31 11:45:54;;;;;;;12.25;3.85;;;3.70;83.10;;;;;;5032348;28;20041;-76
2021/01/31 11:48:20;;;;;;;10.40;3.97;;;3.80;83.00;;;;;;5031232;28;20473;-76
2021/01/31 11:50:46;;;;;;;8.63;3.55;;;3.80;83.00;;;;;;5032280;28;20029;-76
2021/01/31 11:53:13;;;;;;;8.60;3.45;;;3.70;83.10;;;;;;5031678;28;20021;-75
2021/01/31 11:55:39;;;;;;;9.38;4.00;;;3.80;83.40;;;;;;5031685;28;20080;-75
2021/01/31 11:58:04;;;;;;;10.82;3.30;;;3.90;83.50;;;;;;5032252;28;20025;-75
2021/01/31 12:00:30;;;;;;;11.82;4.55;;;4.00;83.40;;;;;;5031010;28;20429;-75
2021/01/31 12:02:56;;;;;;;10.77;4.10;;;4.20;83.20;;;;;;5014147;28;20461;-75
2021/01/31 12:05:25;;;;;;;8.80;4.13;;;4.40;83.60;;;;;;5013446;28;20021;-76
2021/01/31 12:07:51;;;;;;;7.38;3.65;;;4.40;82.80;;;;;;5031879;28;20104;-75
2021/01/31 12:10:18;;;;;;;14.77;4.50;;;4.60;82.70;;;;;;5031846;28;20462;-77
2021/01/31 12:12:44;;;;;;;11.52;3.40;;;4.60;82.60;;;;;;5014266;28;20025;-76
2021/01/31 12:15:12;;;;;;;6.28;2.72;;;4.60;82.50;;;;;;5014067;28;20022;-77
2021/01/31 12:17:39;;;;;;;7.85;3.58;;;4.70;82.50;;;;;;5013476;28;20484;-77
2021/01/31 12:20:06;;;;;;;9.02;3.42;;;4.60;82.40;;;;;;5032276;28;20053;-76
2021/01/31 12:22:32;;;;;;;7.28;3.45;;;4.60;82.50;;;;;;5031144;28;20029;-76
2021/01/31 12:24:57;;;;;;;8.88;3.83;;;4.60;82.50;;;;;;5031620;28;20060;-76
2021/01/31 12:27:28;;;;;;;6.95;3.92;;;4.60;82.40;;;;;;5030939;28;20072;-77
2021/01/31 12:29:54;;;;;;;7.47;3.70;;;4.60;82.30;;;;;;5013931;28;20018;-77
2021/01/31 12:32:20;;;;;;;9.05;3.88;;;4.60;82.20;;;;;;5030655;28;20424;-77
2021/01/31 12:34:46;;;;;;;8.02;3.05;;;4.60;82.20;;;;;;5031624;28;20029;-76
2021/01/31 12:37:12;;;;;;;7.30;2.63;;;4.60;82.00;;;;;;5031143;28;20028;-76
2021/01/31 12:39:38;;;;;;;10.65;4.05;;;4.70;81.80;;;;;;5030627;28;20381;-76
2021/01/31 12:42:04;;;;;;;9.48;4.03;;;4.70;81.80;;;;;;5031592;28;20075;-79
2021/01/31 12:44:30;;;;;;;9.55;3.50;;;4.80;81.60;;;;;;5030505;28;20127;-78
2021/01/31 12:46:56;;;;;;;9.07;3.80;;;4.90;81.40;;;;;;5013649;28;20466;-77
2021/01/31 12:49:22;;;;;;;10.23;3.67;;;4.90;81.30;;;;;;5030946;28;20121;-77
2021/01/31 12:51:47;;;;;;;8.63;3.47;;;5.00;81.20;;;;;;5031265;28;20347;-77
2021/01/31 12:54:13;;;;;;;10.45;4.75;;;5.10;81.00;;;;;;5031569;28;20029;-77
2021/01/31 12:56:38;;;;;;;11.75;4.78;;;5.10;80.90;;;;;;5017066;28;20083;-77
2021/01/31 12:59:04;;;;;;;10.38;3.78;;;5.20;80.80;;;;;;5035403;28;20083;-76
2021/01/31 13:01:30;;;;;;;7.03;2.80;;;5.20;80.80;;;;;;5016844;28;20068;-76
2021/01/31 13:03:56;;;;;;;6.25;2.40;;;5.10;80.70;;;;;;5035348;28;20030;-78
2021/01/31 13:06:22;;;;;;;6.15;2.72;;;5.00;80.80;;;;;;5017381;28;20045;-76
2021/01/31 13:08:48;;;;;;;6.82;3.00;;;5.00;81.00;;;;;;5035450;28;20029;-76
2021/01/31 13:11:14;;;;;;;7.35;2.72;;;4.80;81.10;;;;;;5017405;28;20369;-76
2021/01/31 13:13:40;;;;;;;6.60;3.17;;;4.70;81.20;;;;;;5016620;28;20083;-76
2021/01/31 13:16:06;;;;;;;7.80;4.15;;;4.70;81.30;;;;;;5017217;28;20029;-76
2021/01/31 13:18:31;;;;;;;12.63;3.92;;;4.70;81.20;;;;;;5016607;28;20083;-78
2021/01/31 13:20:57;;;;;;;9.60;3.92;;;4.60;81.20;;;;;;5034864;28;20045;-77
2021/01/31 13:23:23;;;;;;;10.63;3.15;;;4.60;81.20;;;;;;5034853;28;20030;-77